createdAt,value
2019-05-21T00:02:24.527Z,4.25
2019-05-21T00:04:53.022Z,4.33
2019-05-21T00:07:21.504Z,4.27
2019-05-21T00:09:50.023Z,4.10
2019-05-21T00:12:18.496Z,4.30
2019-05-21T00:14:46.999Z,4.33
2019-05-21T00:17:15.477Z,4.60
2019-05-21T00:19:44.056Z,4.37
2019-05-21T00:22:12.531Z,3.77
2019-05-21T00:24:41.064Z,3.90
2019-05-21T00:27:09.524Z,3.70
2019-05-21T00:30:13.789Z,3.97
2019-05-21T00:33:18.228Z,3.83
2019-05-21T00:36:24.071Z,4.27
2019-05-21T00:39:28.583Z,4.23
2019-05-21T00:42:05.139Z,4.10
2019-05-21T00:44:42.862Z,4.50
2019-05-21T00:47:12.508Z,4.37
2019-05-21T00:49:41.057Z,4.37
2019-05-21T00:52:09.870Z,4.23
2019-05-21T00:54:38.443Z,4.17
2019-05-21T00:57:06.923Z,4.27
2019-05-21T00:59:35.430Z,3.93
2019-05-21T01:02:03.966Z,4.43
2019-05-21T01:04:32.480Z,4.17
2019-05-21T01:07:00.929Z,4.10
2019-05-21T01:09:29.424Z,4.23
2019-05-21T01:11:57.900Z,4.60
2019-05-21T01:14:26.406Z,5.33
2019-05-21T01:16:54.880Z,5.13
2019-05-21T01:19:23.374Z,4.87
2019-05-21T01:21:51.958Z,4.73
2019-05-21T01:24:20.538Z,5.03
2019-05-21T01:26:49.006Z,4.77
2019-05-21T01:29:17.487Z,5.83
2019-05-21T01:31:45.983Z,5.67
2019-05-21T01:34:14.472Z,5.63
2019-05-21T01:36:42.966Z,5.53
2019-05-21T01:39:11.809Z,5.27
2019-05-21T01:41:40.378Z,6.00
2019-05-21T01:44:08.849Z,5.90
2019-05-21T01:46:37.348Z,5.70
2019-05-21T01:49:05.889Z,5.83
2019-05-21T01:51:34.387Z,5.80
2019-05-21T01:54:02.859Z,5.60
2019-05-21T01:56:31.353Z,5.77
2019-05-21T01:58:59.839Z,6.33
2019-05-21T02:01:28.412Z,5.73
2019-05-21T02:03:56.892Z,5.80
2019-05-21T02:06:25.565Z,5.77
2019-05-21T02:08:54.039Z,5.40
2019-05-21T02:11:22.534Z,5.00
2019-05-21T02:13:51.018Z,5.10
2019-05-21T02:16:19.579Z,4.80
2019-05-21T02:18:48.140Z,5.00
2019-05-21T02:21:16.661Z,4.70
2019-05-21T02:23:45.134Z,4.90
2019-05-21T02:26:13.632Z,5.20
2019-05-21T02:28:42.117Z,5.03
2019-05-21T02:31:10.681Z,5.03
2019-05-21T02:33:39.148Z,5.50
2019-05-21T02:36:07.706Z,5.50
2019-05-21T02:38:36.175Z,5.37
2019-05-21T02:41:04.906Z,5.57
2019-05-21T02:43:33.376Z,5.90
2019-05-21T02:46:01.849Z,5.20
2019-05-21T02:48:30.333Z,6.10
2019-05-21T02:50:58.815Z,5.47
2019-05-21T02:53:27.306Z,5.83
2019-05-21T02:55:55.780Z,5.60
2019-05-21T02:58:24.278Z,5.97
2019-05-21T03:00:59.812Z,6.43
2019-05-21T03:03:30.077Z,6.43
2019-05-21T03:06:13.385Z,6.07
2019-05-21T03:08:28.755Z,6.17
2019-05-21T03:10:57.225Z,6.20
2019-05-21T03:13:25.713Z,6.30
2019-05-21T03:15:54.189Z,6.50
2019-05-21T03:18:22.757Z,6.27
2019-05-21T03:20:51.229Z,6.63
2019-05-21T03:23:19.725Z,6.17
2019-05-21T03:25:48.190Z,6.33
2019-05-21T03:28:16.676Z,6.10
2019-05-21T03:30:45.145Z,6.70
2019-05-21T03:33:13.638Z,6.60
2019-05-21T03:35:42.171Z,6.23
2019-05-21T03:38:10.668Z,6.97
2019-05-21T03:40:39.143Z,6.73
2019-05-21T03:43:07.633Z,7.00
2019-05-21T03:45:36.105Z,6.30
2019-05-21T03:48:04.662Z,6.03
2019-05-21T03:50:33.128Z,6.37
2019-05-21T03:53:01.889Z,6.90
2019-05-21T03:55:30.361Z,7.00
2019-05-21T03:57:58.843Z,6.33
2019-05-21T04:00:27.316Z,6.20
2019-05-21T04:02:55.813Z,5.67
2019-05-21T04:05:25.515Z,6.77
2019-05-21T04:07:54.143Z,6.63
2019-05-21T04:10:22.849Z,6.90
2019-05-21T04:13:06.752Z,7.17
2019-05-21T04:15:38.481Z,7.73
2019-05-21T04:18:08.675Z,7.10
2019-05-21T04:20:37.151Z,7.03
2019-05-21T04:23:05.630Z,6.60
2019-05-21T04:25:34.124Z,7.10
2019-05-21T04:28:02.599Z,6.63
2019-05-21T04:30:31.096Z,7.50
2019-05-21T04:32:59.573Z,7.30
2019-05-21T04:35:28.065Z,6.60
2019-05-21T04:37:56.542Z,7.10
2019-05-21T04:40:25.047Z,7.60
2019-05-21T04:42:53.524Z,7.17
2019-05-21T04:45:22.019Z,7.30
2019-05-21T04:47:50.484Z,8.13
2019-05-21T04:50:18.988Z,8.57
2019-05-21T04:52:47.466Z,8.13
2019-05-21T04:55:15.961Z,8.65
2019-05-21T04:57:44.446Z,7.62
2019-05-21T05:00:13.479Z,7.97
2019-05-21T05:02:41.952Z,7.25
2019-05-21T05:05:10.694Z,6.65
2019-05-21T05:07:39.167Z,6.47
2019-05-21T05:10:08.006Z,6.37
2019-05-21T05:12:36.493Z,5.85
2019-05-21T05:15:07.122Z,6.05
2019-05-21T05:17:35.611Z,5.33
2019-05-21T05:20:05.148Z,4.87
2019-05-21T05:22:33.780Z,4.90
2019-05-21T05:25:02.321Z,4.62
2019-05-21T05:27:30.792Z,5.33
2019-05-21T05:29:59.292Z,5.37
2019-05-21T05:32:27.845Z,4.67
2019-05-21T05:34:56.344Z,4.97
2019-05-21T05:37:24.815Z,4.35
2019-05-21T05:39:53.311Z,4.08
2019-05-21T05:42:21.775Z,4.65
2019-05-21T05:44:50.274Z,4.47
2019-05-21T05:47:18.743Z,5.30
2019-05-21T05:49:48.888Z,4.95
2019-05-21T05:52:17.343Z,4.72
2019-05-21T05:54:45.835Z,5.75
2019-05-21T05:57:14.298Z,6.50
2019-05-21T05:59:42.788Z,6.20
2019-05-21T06:02:11.263Z,6.85
2019-05-21T06:04:39.758Z,6.00
2019-05-21T06:07:08.223Z,7.03
2019-05-21T06:09:36.693Z,5.75
2019-05-21T06:12:05.260Z,5.62
2019-05-21T06:14:33.726Z,5.70
2019-05-21T06:17:02.500Z,5.05
2019-05-21T06:19:31.164Z,5.05
2019-05-21T06:21:59.656Z,4.80
2019-05-21T06:24:28.135Z,5.80
2019-05-21T06:26:56.627Z,6.17
2019-05-21T06:29:25.093Z,5.65
2019-05-21T06:31:53.604Z,6.20
2019-05-21T06:34:22.060Z,5.75
2019-05-21T06:36:50.568Z,5.70
2019-05-21T06:39:19.035Z,7.00
2019-05-21T06:41:47.529Z,5.67
2019-05-21T06:44:15.994Z,6.47
2019-05-21T06:46:44.495Z,5.92
2019-05-21T06:49:12.990Z,5.70
2019-05-21T06:51:41.543Z,5.90
2019-05-21T06:54:10.024Z,5.35
2019-05-21T06:56:38.510Z,4.75
2019-05-21T06:59:06.983Z,4.62
2019-05-21T07:01:35.474Z,3.72
2019-05-21T07:04:03.953Z,4.95
2019-05-21T07:06:32.449Z,5.25
2019-05-21T07:09:00.917Z,4.75
2019-05-21T07:11:29.413Z,3.77
2019-05-21T07:13:57.892Z,5.22
2019-05-21T07:16:26.383Z,4.92
2019-05-21T07:18:54.849Z,4.12
2019-05-21T07:21:23.320Z,3.87
2019-05-21T07:23:51.818Z,4.60
2019-05-21T07:26:20.379Z,4.00
2019-05-21T07:28:48.863Z,5.10
2019-05-21T07:31:17.731Z,4.80
2019-05-21T07:33:46.291Z,4.87
2019-05-21T07:36:14.767Z,4.10
2019-05-21T07:38:53.234Z,4.53
2019-05-21T07:41:13.461Z,4.78
2019-05-21T07:43:41.986Z,4.40
2019-05-21T07:46:10.513Z,4.62
2019-05-21T07:48:39.012Z,3.35
2019-05-21T07:51:07.484Z,4.28
2019-05-21T07:53:35.992Z,3.70
2019-05-21T07:56:04.535Z,3.80
2019-05-21T07:58:33.035Z,3.80
2019-05-21T08:01:01.883Z,3.77
2019-05-21T08:03:30.399Z,3.90
2019-05-21T08:05:58.873Z,4.28
2019-05-21T08:08:27.379Z,4.00
2019-05-21T08:10:55.957Z,4.95
2019-05-21T08:13:24.432Z,4.70
2019-05-21T08:15:52.992Z,5.30
2019-05-21T08:18:21.494Z,5.17
2019-05-21T08:20:49.971Z,4.80
2019-05-21T08:23:18.466Z,5.28
2019-05-21T08:25:46.934Z,3.10
2019-05-21T08:28:15.430Z,2.75
2019-05-21T08:30:43.904Z,2.85
2019-05-21T08:33:12.407Z,3.50
2019-05-21T08:35:40.876Z,2.80
2019-05-21T08:38:09.442Z,2.60
2019-05-21T08:40:37.932Z,2.65
2019-05-21T08:43:06.498Z,2.75
2019-05-21T08:45:34.971Z,2.95
2019-05-21T08:48:03.477Z,2.90
2019-05-21T08:50:32.026Z,2.72
2019-05-21T08:53:00.520Z,2.75
2019-05-21T08:55:28.990Z,2.40
2019-05-21T08:58:07.073Z,2.87
2019-05-21T09:00:28.117Z,2.70
2019-05-21T09:02:56.671Z,3.20
2019-05-21T09:05:25.208Z,2.70
2019-05-21T09:07:54.245Z,2.42
2019-05-21T09:10:22.773Z,2.40
2019-05-21T09:12:51.241Z,2.15
2019-05-21T09:15:20.005Z,3.00
2019-05-21T09:17:49.321Z,2.60
2019-05-21T09:20:19.959Z,2.70
2019-05-21T09:22:48.552Z,2.60
2019-05-21T09:25:17.043Z,2.47
2019-05-21T09:27:45.506Z,2.47
2019-05-21T09:30:14.745Z,2.40
2019-05-21T09:32:43.263Z,2.40
2019-05-21T09:35:12.044Z,2.95
2019-05-21T09:37:40.516Z,2.62
2019-05-21T09:40:10.152Z,2.50
2019-05-21T09:42:39.198Z,2.27
2019-05-21T09:45:08.443Z,2.60
2019-05-21T09:47:36.995Z,2.58
2019-05-21T09:50:07.769Z,2.80
2019-05-21T09:52:36.370Z,2.87
2019-05-21T09:55:06.507Z,3.30
2019-05-21T09:57:49.136Z,3.65
2019-05-21T10:00:34.876Z,3.58
2019-05-21T10:03:05.421Z,3.70
2019-05-21T10:05:33.925Z,3.80
2019-05-21T10:08:02.471Z,4.17
2019-05-21T10:10:31.123Z,3.22
2019-05-21T10:12:59.575Z,3.35
2019-05-21T10:15:28.073Z,3.27
2019-05-21T10:17:56.542Z,3.42
2019-05-21T10:20:25.046Z,3.60
2019-05-21T10:22:53.573Z,3.83
2019-05-21T10:25:22.131Z,3.22
2019-05-21T10:27:50.595Z,3.27
2019-05-21T10:30:19.241Z,3.30
2019-05-21T10:32:47.722Z,3.35
2019-05-21T10:35:16.206Z,2.62
2019-05-21T10:37:54.510Z,2.95
2019-05-21T10:40:15.103Z,2.70
2019-05-21T10:42:43.727Z,2.55
2019-05-21T10:45:12.664Z,2.30
2019-05-21T10:47:41.128Z,2.50
2019-05-21T10:50:09.866Z,2.02
2019-05-21T10:52:38.348Z,2.50
2019-05-21T10:55:06.973Z,2.85
2019-05-21T10:57:35.455Z,4.00
2019-05-21T11:00:08.789Z,3.00
2019-05-21T11:02:38.897Z,2.25
2019-05-21T11:05:12.473Z,2.10
2019-05-21T11:07:40.944Z,2.40
2019-05-21T11:10:09.955Z,2.20
2019-05-21T11:12:38.536Z,1.80
2019-05-21T11:15:07.837Z,1.77
2019-05-21T11:17:53.334Z,2.00
2019-05-21T11:20:07.149Z,2.12
2019-05-21T11:22:35.601Z,2.08
2019-05-21T11:25:05.541Z,1.82
2019-05-21T11:27:34.008Z,1.87
2019-05-21T11:30:02.577Z,2.00
2019-05-21T11:32:31.047Z,2.10
2019-05-21T11:34:59.580Z,2.08
2019-05-21T11:37:28.052Z,2.15
2019-05-21T11:39:56.534Z,1.98
2019-05-21T11:42:25.095Z,1.72
2019-05-21T11:44:53.564Z,1.90
2019-05-21T11:47:22.057Z,2.20
2019-05-21T11:49:50.540Z,1.77
2019-05-21T11:52:19.046Z,2.17
2019-05-21T11:54:47.510Z,2.20
2019-05-21T11:57:16.014Z,1.77
2019-05-21T11:59:44.486Z,2.00
2019-05-21T12:02:13.539Z,2.08
2019-05-21T12:04:42.040Z,2.02
2019-05-21T12:07:10.571Z,2.12
2019-05-21T12:09:39.048Z,2.20
2019-05-21T12:12:07.559Z,1.60
2019-05-21T12:14:36.048Z,2.00
2019-05-21T12:17:04.615Z,2.10
2019-05-21T12:19:33.076Z,2.02
2019-05-21T12:22:01.656Z,2.10
2019-05-21T12:24:30.127Z,1.95
2019-05-21T12:26:58.626Z,2.00
2019-05-21T12:29:27.105Z,1.98
2019-05-21T12:31:55.598Z,2.47
2019-05-21T12:34:24.065Z,1.90
2019-05-21T12:36:52.558Z,2.10
2019-05-21T12:39:21.023Z,2.10
2019-05-21T12:41:49.515Z,2.10
2019-05-21T12:44:18.001Z,2.25
2019-05-21T12:46:46.553Z,2.00
2019-05-21T12:49:15.018Z,1.90
2019-05-21T12:51:43.596Z,1.98
2019-05-21T12:54:12.158Z,1.75
2019-05-21T12:56:41.250Z,1.85
2019-05-21T12:59:09.800Z,1.77
2019-05-21T13:01:38.302Z,1.40
2019-05-21T13:04:06.780Z,5.47
2019-05-21T13:06:35.325Z,1.50
2019-05-21T13:09:08.103Z,1.50
2019-05-21T13:11:36.180Z,1.57
2019-05-21T13:14:04.992Z,1.62
2019-05-21T13:16:33.529Z,1.55
2019-05-21T13:19:02.022Z,1.70
2019-05-21T13:21:30.513Z,1.50
2019-05-21T13:23:59.798Z,1.80
2019-05-21T13:26:28.275Z,1.47
2019-05-21T13:28:56.761Z,1.60
2019-05-21T13:31:25.228Z,1.80
2019-05-21T13:33:53.733Z,1.70
2019-05-21T13:36:22.275Z,1.30
2019-05-21T13:38:50.782Z,1.30
2019-05-21T13:41:19.482Z,1.25
2019-05-21T13:43:48.064Z,1.20
2019-05-21T13:46:16.532Z,1.30
2019-05-21T13:48:47.040Z,1.15
2019-05-21T13:51:15.233Z,1.37
2019-05-21T13:53:43.731Z,1.92
2019-05-21T13:56:12.302Z,2.10
2019-05-21T13:58:40.829Z,1.80
2019-05-21T14:01:09.744Z,1.90
2019-05-21T14:03:38.317Z,2.08
2019-05-21T14:06:06.929Z,2.55
2019-05-21T14:08:35.592Z,1.95
2019-05-21T14:11:04.238Z,2.05
2019-05-21T14:13:32.839Z,2.20
2019-05-21T14:16:01.418Z,1.90
2019-05-21T14:18:29.880Z,2.20
2019-05-21T14:20:58.346Z,2.35
2019-05-21T14:23:26.840Z,2.30
2019-05-21T14:25:55.380Z,1.75
2019-05-21T14:28:23.872Z,2.20
2019-05-21T14:30:52.375Z,2.35
2019-05-21T14:33:20.922Z,2.30
2019-05-21T14:35:49.388Z,2.60
2019-05-21T14:38:17.873Z,2.60
2019-05-21T14:40:46.346Z,2.35
2019-05-21T14:43:14.837Z,2.58
2019-05-21T14:45:43.301Z,2.10
2019-05-21T14:48:11.797Z,2.50
2019-05-21T14:50:40.269Z,2.10
2019-05-21T14:53:08.858Z,2.30
2019-05-21T14:55:37.504Z,2.30
2019-05-21T14:58:05.990Z,2.65
2019-05-21T15:00:37.932Z,2.40
2019-05-21T15:03:06.401Z,2.47
2019-05-21T15:05:35.613Z,2.60
2019-05-21T15:08:05.125Z,2.60
2019-05-21T15:10:47.308Z,2.52
2019-05-21T15:13:06.115Z,2.45
2019-05-21T15:15:34.985Z,2.17
2019-05-21T15:18:03.738Z,2.35
2019-05-21T15:20:37.010Z,2.50
2019-05-21T15:23:05.542Z,2.80
2019-05-21T15:25:34.101Z,2.42
2019-05-21T15:28:02.570Z,2.30
2019-05-21T15:30:31.061Z,2.30
2019-05-21T15:32:59.535Z,1.80
2019-05-21T15:35:28.035Z,1.50
2019-05-21T15:37:56.502Z,1.80
2019-05-21T15:40:25.066Z,1.47
2019-05-21T15:42:53.932Z,1.15
2019-05-21T15:45:22.846Z,1.47
2019-05-21T15:47:51.323Z,1.35
2019-05-21T15:50:19.965Z,1.30
2019-05-21T15:52:48.451Z,1.17
2019-05-21T15:55:16.944Z,1.10
2019-05-21T15:57:45.417Z,1.10
2019-05-21T16:00:14.711Z,1.20
2019-05-21T16:02:43.183Z,1.30
2019-05-21T16:05:12.212Z,1.10
2019-05-21T16:07:40.683Z,1.25
2019-05-21T16:10:09.517Z,1.37
2019-05-21T16:12:37.994Z,1.30
2019-05-21T16:15:07.587Z,1.32
2019-05-21T16:17:36.067Z,1.40
2019-05-21T16:20:06.801Z,1.20
2019-05-21T16:22:35.271Z,1.40
2019-05-21T16:25:07.879Z,1.50
2019-05-21T16:27:36.360Z,1.30
2019-05-21T16:30:07.935Z,1.67
2019-05-21T16:32:36.419Z,2.00
2019-05-21T16:35:07.520Z,2.10
2019-05-21T16:37:36.058Z,2.30
2019-05-21T16:40:06.595Z,2.30
2019-05-21T16:42:35.067Z,1.98
2019-05-21T16:45:05.071Z,2.30
2019-05-21T16:47:44.499Z,2.40
2019-05-21T16:50:06.030Z,2.52
2019-05-21T16:52:34.830Z,2.30
2019-05-21T16:55:04.189Z,2.08
2019-05-21T16:57:32.741Z,2.20
2019-05-21T17:00:01.319Z,2.58
2019-05-21T17:02:29.795Z,2.30
2019-05-21T17:04:58.289Z,2.35
2019-05-21T17:07:26.766Z,1.98
2019-05-21T17:09:55.256Z,2.17
2019-05-21T17:12:23.831Z,2.33
2019-05-21T17:14:52.300Z,2.30
2019-05-21T17:17:20.790Z,2.40
2019-05-21T17:19:49.260Z,2.25
2019-05-21T17:22:17.756Z,2.55
2019-05-21T17:24:46.236Z,2.70
2019-05-21T17:27:14.735Z,2.60
2019-05-21T17:29:43.211Z,2.50
2019-05-21T17:32:11.731Z,2.40
2019-05-21T17:34:40.212Z,7.58
2019-05-21T17:37:08.727Z,3.40
2019-05-21T17:39:37.278Z,3.08
2019-05-21T17:42:15.118Z,3.10
2019-05-21T17:44:36.662Z,3.12
2019-05-21T17:47:05.151Z,3.25
2019-05-21T17:49:33.616Z,3.33
2019-05-21T17:52:02.106Z,3.45
2019-05-21T17:54:30.585Z,3.47
2019-05-21T17:56:59.157Z,3.10
2019-05-21T17:59:27.622Z,3.30
2019-05-21T18:01:56.338Z,3.80
2019-05-21T18:04:25.950Z,3.65
2019-05-21T18:06:54.595Z,3.42
2019-05-21T18:09:23.507Z,3.60
2019-05-21T18:11:51.987Z,3.50
2019-05-21T18:14:20.529Z,3.70
2019-05-21T18:16:49.203Z,3.70
2019-05-21T18:19:18.100Z,3.30
2019-05-21T18:21:46.591Z,3.17
2019-05-21T18:24:15.079Z,3.33
2019-05-21T18:26:43.879Z,3.30
2019-05-21T18:29:12.411Z,3.27
2019-05-21T18:31:40.984Z,2.92
2019-05-21T18:34:09.594Z,3.58
2019-05-21T18:36:38.302Z,3.40
2019-05-21T18:39:06.873Z,3.37
2019-05-21T18:41:35.568Z,3.55
2019-05-21T18:44:04.312Z,3.75
2019-05-21T18:46:32.794Z,3.15
2019-05-21T18:49:01.288Z,3.30
2019-05-21T18:51:29.753Z,3.50
2019-05-21T18:53:58.244Z,3.00
2019-05-21T18:56:26.722Z,3.10
2019-05-21T18:58:55.234Z,3.20
2019-05-21T19:01:24.141Z,3.33
2019-05-21T19:03:52.636Z,3.85
2019-05-21T19:06:21.277Z,3.80
2019-05-21T19:08:49.958Z,4.47
2019-05-21T19:11:18.505Z,4.20
2019-05-21T19:13:47.242Z,3.92
2019-05-21T19:16:15.709Z,4.20
2019-05-21T19:18:44.294Z,3.83
2019-05-21T19:21:12.779Z,3.90
2019-05-21T19:23:41.294Z,3.60
2019-05-21T19:26:09.835Z,3.20
2019-05-21T19:28:38.414Z,3.40
2019-05-21T19:31:06.893Z,3.40
2019-05-21T19:33:35.374Z,3.33
2019-05-21T19:36:03.869Z,3.62
2019-05-21T19:38:32.367Z,3.60
2019-05-21T19:41:00.843Z,3.30
2019-05-21T19:43:29.508Z,2.98
2019-05-21T19:45:57.982Z,3.20
2019-05-21T19:48:26.616Z,3.27
2019-05-21T19:50:55.089Z,3.22
2019-05-21T19:53:23.598Z,3.40
2019-05-21T19:55:52.525Z,3.42
2019-05-21T19:58:20.994Z,3.58
2019-05-21T20:00:53.856Z,3.90
2019-05-21T20:03:22.491Z,3.83
2019-05-21T20:05:51.383Z,3.95
2019-05-21T20:08:20.337Z,4.42
2019-05-21T20:10:48.841Z,3.95
2019-05-21T20:13:25.063Z,4.25
2019-05-21T20:15:47.679Z,3.33
2019-05-21T20:18:16.487Z,3.62
2019-05-21T20:20:45.049Z,3.00
2019-05-21T20:23:13.871Z,2.98
2019-05-21T20:25:55.433Z,2.70
2019-05-21T20:28:13.101Z,2.40
2019-05-21T20:30:44.729Z,2.95
2019-05-21T20:33:12.740Z,3.17
2019-05-21T20:35:41.852Z,3.30
2019-05-21T20:38:10.614Z,3.00
2019-05-21T20:40:40.245Z,2.80
2019-05-21T20:43:08.948Z,2.95
2019-05-21T20:45:39.965Z,3.42
2019-05-21T20:48:08.895Z,3.50
2019-05-21T20:50:38.308Z,4.00
2019-05-21T20:53:09.480Z,4.00
2019-05-21T20:55:38.423Z,4.62
2019-05-21T20:58:08.531Z,4.60
2019-05-21T21:00:38.674Z,4.30
2019-05-21T21:03:10.221Z,4.35
2019-05-21T21:05:39.374Z,4.33
2019-05-21T21:08:08.552Z,5.40
2019-05-21T21:10:38.024Z,4.78
2019-05-21T21:13:08.501Z,5.50
2019-05-21T21:15:37.435Z,5.47
2019-05-21T21:18:06.547Z,5.50
2019-05-21T21:20:35.206Z,5.33
2019-05-21T21:23:03.676Z,5.75
2019-05-21T21:25:32.511Z,5.42
2019-05-21T21:28:01.223Z,6.17
2019-05-21T21:30:29.986Z,6.08
2019-05-21T21:33:00.090Z,6.20
2019-05-21T21:35:28.644Z,6.50
2019-05-21T21:37:57.181Z,5.95
2019-05-21T21:40:26.210Z,6.42
2019-05-21T21:42:54.903Z,6.55
2019-05-21T21:45:23.465Z,6.60
2019-05-21T21:47:52.196Z,6.80
2019-05-21T21:50:21.567Z,6.80
2019-05-21T21:52:50.383Z,6.83
2019-05-21T21:55:18.951Z,7.30
2019-05-21T21:57:47.428Z,7.22
2019-05-21T22:00:43.148Z,6.60
2019-05-21T22:03:12.447Z,6.87
2019-05-21T22:05:41.480Z,6.62
2019-05-21T22:08:10.321Z,7.28
2019-05-21T22:10:39.699Z,6.53
2019-05-21T22:13:08.406Z,7.08
2019-05-21T22:15:37.373Z,6.62
2019-05-21T22:18:06.311Z,7.10
2019-05-21T22:20:35.052Z,7.28
2019-05-21T22:23:03.845Z,7.20
2019-05-21T22:25:32.536Z,7.35
2019-05-21T22:28:01.165Z,8.00
2019-05-21T22:30:29.701Z,7.67
2019-05-21T22:32:58.202Z,7.25
2019-05-21T22:35:26.675Z,7.35
2019-05-21T22:37:55.188Z,7.47
2019-05-21T22:40:23.668Z,7.60
2019-05-21T22:42:52.179Z,7.10
2019-05-21T22:45:20.790Z,8.05
2019-05-21T22:47:49.357Z,7.55
2019-05-21T22:50:18.174Z,7.65
2019-05-21T22:52:46.750Z,6.67
2019-05-21T22:55:15.302Z,6.50
2019-05-21T22:57:43.802Z,6.58
2019-05-21T23:00:13.475Z,6.50
2019-05-21T23:02:42.636Z,6.47
2019-05-21T23:05:11.514Z,6.83
2019-05-21T23:07:40.147Z,6.65
2019-05-21T23:10:10.942Z,6.80
2019-05-21T23:12:40.167Z,6.28
2019-05-21T23:15:23.655Z,6.20
2019-05-21T23:17:40.311Z,7.72
2019-05-21T23:20:12.414Z,8.03
2019-05-21T23:22:42.901Z,8.35
2019-05-21T23:25:12.518Z,8.35
2019-05-21T23:27:41.740Z,9.70
2019-05-21T23:30:14.973Z,10.38
2019-05-21T23:32:44.704Z,10.65
2019-05-21T23:35:14.392Z,10.78
2019-05-21T23:37:44.731Z,11.68
2019-05-21T23:40:15.611Z,11.60
2019-05-21T23:42:44.192Z,12.53
2019-05-21T23:45:12.955Z,12.03
2019-05-21T23:47:41.560Z,12.55
2019-05-21T23:50:12.955Z,12.70
2019-05-21T23:52:41.798Z,12.40
2019-05-21T23:55:10.803Z,11.93
2019-05-21T23:57:40.461Z,12.78
